Time;durP1;ratioP1;P1;durP2;ratioP2;P2;SDS_P1;SDS_P2;PMS_P1;PMS_P2;Temp;Humidity;BMP_temperature;BMP_pressure;BME280_temperature;BME280_humidity;BME280_pressure;Samples;Min_cycle;Max_cycle;Signal;HPM_P1;HPM_P2
2022/10/13 00:01:23;;;;;;;;;25.00;24.00;;;;;14.24;86.33;101642.63;5081506;27;45412;-82
2022/10/13 00:03:49;;;;;;;;;25.33;23.00;;;;;14.33;86.54;101650.56;5080400;28;45402;-82
2022/10/13 00:06:17;;;;;;;;;27.33;27.00;;;;;14.32;86.67;101649.75;5080893;27;46178;-82
2022/10/13 00:08:44;;;;;;;;;24.67;23.33;;;;;14.33;86.79;101646.06;5081511;28;45284;-82
2022/10/13 00:11:16;;;;;;;;;26.00;25.00;;;;;14.22;86.84;101623.22;5093583;27;45318;-81
2022/10/13 00:13:44;;;;;;;;;23.67;23.00;;;;;14.26;86.88;101635.25;5074610;28;46851;-81
2022/10/13 00:16:10;;;;;;;;;25.67;25.00;;;;;14.36;87.10;101640.38;5114040;27;47425;-82
2022/10/13 00:18:36;;;;;;;;;25.67;23.67;;;;;14.36;86.95;101637.69;5081101;27;45234;-82
2022/10/13 00:21:08;;;;;;;;;28.00;28.00;;;;;14.29;86.85;101628.72;5081071;28;45322;-82
2022/10/13 00:23:34;;;;;;;;;26.67;26.67;;;;;14.36;87.04;101639.53;5081254;27;45263;-81
2022/10/13 00:26:03;;;;;;;;;24.00;24.00;;;;;14.38;87.17;101640.19;5080696;27;45348;-82
2022/10/13 00:28:28;;;;;;;;;27.00;25.67;;;;;14.31;87.07;101639.25;5079558;28;45418;-82
2022/10/13 00:30:54;;;;;;;;;27.00;27.00;;;;;14.31;87.05;101644.59;5081017;27;45374;-82
2022/10/13 00:33:20;;;;;;;;;27.67;25.67;;;;;14.34;87.38;101652.25;5096734;27;47280;-82
2022/10/13 00:35:47;;;;;;;;;28.00;26.33;;;;;14.37;87.03;101652.72;5080650;27;45458;-82
2022/10/13 00:38:17;;;;;;;;;35.33;32.00;;;;;14.39;86.89;101641.84;5080990;28;45323;-82
2022/10/13 00:40:55;;;;;;;;;28.67;27.33;;;;;14.39;87.11;101631.16;5080874;28;45354;-82
2022/10/13 00:43:29;;;;;;;;;28.33;28.00;;;;;14.49;86.95;101634.41;5067818;28;45387;-82
2022/10/13 00:45:55;;;;;;;;;28.00;28.00;;;;;14.49;86.94;101625.56;5080613;27;46284;-82
2022/10/13 00:48:29;;;;;;;;;29.00;28.33;;;;;14.37;86.86;101611.78;5080723;27;45362;-82
2022/10/13 00:50:57;;;;;;;;;28.00;27.00;;;;;14.38;86.99;101600.91;5079517;28;45445;-82
2022/10/13 00:53:25;;;;;;;;;32.67;29.00;;;;;14.54;86.96;101620.50;5080793;27;45612;-82
2022/10/13 00:55:51;;;;;;;;;26.33;26.33;;;;;14.55;87.08;101634.72;5095924;27;48549;-82
2022/10/13 00:58:20;;;;;;;;;25.33;24.33;;;;;14.57;87.27;101630.00;5075523;28;45381;-82
2022/10/13 01:00:49;;;;;;;;;27.33;26.00;;;;;14.51;87.06;101627.06;5104168;27;45275;-82
2022/10/13 01:03:14;;;;;;;;;26.67;26.00;;;;;14.57;86.94;101630.00;5095873;27;46424;-82
2022/10/13 01:05:41;;;;;;;;;22.67;22.67;;;;;14.51;87.12;101619.03;5095923;27;47269;-82
2022/10/13 01:08:09;;;;;;;;;31.33;27.33;;;;;14.48;87.23;101607.84;5080285;27;45338;-82
2022/10/13 01:10:54;;;;;;;;;27.00;27.00;;;;;14.50;86.87;101600.47;5113381;27;45365;-82
2022/10/13 01:13:28;;;;;;;;;26.33;25.67;;;;;14.56;86.93;101601.59;5079424;27;45352;-82
2022/10/13 01:16:24;;;;;;;;;22.00;22.00;;;;;14.49;86.88;101596.16;5078536;28;48300;-82
2022/10/13 01:18:58;;;;;;;;;27.00;26.33;;;;;14.52;86.98;101599.28;5080062;27;45536;-82
2022/10/13 01:21:34;;;;;;;;;24.00;24.00;;;;;14.41;87.35;101583.69;5096033;27;45445;-82
2022/10/13 01:24:02;;;;;;;;;31.00;30.00;;;;;14.52;87.39;101609.19;5078694;28;45982;-81
2022/10/13 01:26:46;;;;;;;;;29.00;26.67;;;;;14.51;87.07;101608.34;5095692;27;47134;-82
2022/10/13 01:29:49;;;;;;;;;27.00;27.00;;;;;14.51;86.98;101604.81;5079592;28;45402;-82
2022/10/13 01:32:39;;;;;;;;;29.00;27.00;;;;;14.42;86.90;101588.00;5095697;27;45537;-82
2022/10/13 01:35:39;;;;;;;;;28.67;28.67;;;;;14.39;87.30;101570.47;5069125;28;45304;-83
2022/10/13 01:38:32;;;;;;;;;24.67;23.00;;;;;14.40;87.27;101574.00;5063275;27;45562;-82
2022/10/13 01:40:58;;;;;;;;;24.67;24.00;;;;;14.44;87.32;101590.50;5095607;27;45451;-82
2022/10/13 01:43:35;;;;;;;;;25.67;25.00;;;;;14.26;87.39;101575.59;5079995;28;45582;-82
2022/10/13 01:46:07;;;;;;;;;25.00;24.67;;;;;14.40;87.27;101600.75;5079630;27;45530;-81
2022/10/13 01:48:37;;;;;;;;;22.67;22.33;;;;;14.30;87.60;101576.91;5078141;28;48123;-82
2022/10/13 01:51:05;;;;;;;;;25.67;22.67;;;;;14.36;87.73;101575.34;5079621;27;45341;-82
2022/10/13 01:53:31;;;;;;;;;28.67;25.33;;;;;14.30;87.52;101568.06;5079890;28;45394;-82
2022/10/13 01:55:59;;;;;;;;;22.33;22.00;;;;;14.35;87.61;101581.72;5079715;27;45352;-82
2022/10/13 01:58:29;;;;;;;;;26.33;24.67;;;;;14.22;87.62;101551.03;5079356;27;45368;-83
2022/10/13 02:01:06;;;;;;;;;29.67;28.00;;;;;14.29;87.56;101580.59;5078540;28;45491;-82
2022/10/13 02:03:46;;;;;;;;;24.67;24.67;;;;;14.11;88.16;101563.00;5079415;28;45330;-82
2022/10/13 02:06:23;;;;;;;;;23.67;21.67;;;;;14.27;88.62;101594.13;5079345;27;45254;-82
2022/10/13 02:09:05;;;;;;;;;25.67;24.00;;;;;14.28;88.55;101594.97;5077995;28;47743;-82
2022/10/13 02:11:31;;;;;;;;;25.00;25.00;;;;;14.25;88.82;101580.09;5091383;27;45331;-82
2022/10/13 02:14:00;;;;;;;;;24.33;23.33;;;;;14.24;88.59;101567.75;5075190;28;45316;-82
2022/10/13 02:16:32;;;;;;;;;25.00;21.67;;;;;14.18;88.72;101552.41;5095070;27;47490;-82
2022/10/13 02:18:59;;;;;;;;;24.33;23.33;;;;;13.91;88.57;101524.41;5078850;27;46131;-82
2022/10/13 02:21:25;;;;;;;;;20.00;20.00;;;;;14.26;88.67;101572.91;5095081;27;45252;-82
2022/10/13 02:23:50;;;;;;;;;25.67;22.33;;;;;14.13;88.60;101544.94;5079295;27;45260;-82
2022/10/13 02:26:16;;;;;;;;;25.67;23.33;;;;;14.31;88.43;101561.69;5079076;28;45244;-82
2022/10/13 02:28:41;;;;;;;;;26.67;23.33;;;;;14.31;88.50;101567.03;5077051;28;48278;-82
2022/10/13 02:31:08;;;;;;;;;24.67;24.67;;;;;14.19;88.42;101538.03;5077735;28;45371;-82
2022/10/13 02:33:33;;;;;;;;;25.00;25.00;;;;;14.33;88.68;101559.66;5079418;27;45487;-82
2022/10/13 02:35:58;;;;;;;;;28.33;25.00;;;;;14.27;88.66;101548.69;5078879;28;45330;-82
2022/10/13 02:38:24;;;;;;;;;26.00;24.67;;;;;14.33;88.44;101554.31;5079012;27;45353;-82
2022/10/13 02:40:49;;;;;;;;;21.67;21.67;;;;;14.29;88.81;101551.19;5078965;28;45280;-83
2022/10/13 02:43:15;;;;;;;;;25.33;24.00;;;;;14.31;88.39;101545.66;5079089;27;45327;-82
2022/10/13 02:45:41;;;;;;;;;21.00;18.67;;;;;14.27;88.52;101537.16;5079092;27;45271;-82
2022/10/13 02:48:06;;;;;;;;;22.67;21.67;;;;;14.30;88.57;101536.78;5078564;27;46312;-83
2022/10/13 02:50:31;;;;;;;;;27.67;27.67;;;;;14.41;88.65;101548.06;5079236;27;45334;-82
2022/10/13 02:52:57;;;;;;;;;23.67;23.00;;;;;14.42;88.65;101539.06;5078979;27;45331;-82
2022/10/13 02:55:22;;;;;;;;;24.00;22.33;;;;;14.38;88.58;101542.09;5077632;28;46349;-82
2022/10/13 02:57:47;;;;;;;;;22.33;22.00;;;;;14.34;88.78;101530.06;5078661;28;45325;-82
2022/10/13 03:00:13;;;;;;;;;21.33;21.33;;;;;14.35;88.46;101525.56;5094284;27;45389;-82
2022/10/13 03:02:39;;;;;;;;;23.00;19.67;;;;;14.30;88.57;101519.94;5078895;27;45378;-82
2022/10/13 03:05:04;;;;;;;;;26.33;24.67;;;;;14.29;88.57;101526.28;5078326;28;45166;-82
2022/10/13 03:07:30;;;;;;;;;24.00;22.00;;;;;14.33;88.80;101523.06;5077492;28;47562;-82
2022/10/13 03:09:55;;;;;;;;;24.67;24.00;;;;;14.38;88.70;101539.41;5078649;27;45178;-82
2022/10/13 03:12:20;;;;;;;;;27.67;25.33;;;;;14.44;88.55;101537.00;5077256;28;45325;-82
2022/10/13 03:14:46;;;;;;;;;24.00;23.33;;;;;14.38;88.73;101525.19;5078360;28;45429;-82
2022/10/13 03:17:11;;;;;;;;;20.33;20.00;;;;;14.45;88.70;101527.97;5078220;27;45455;-82
2022/10/13 03:19:36;;;;;;;;;24.67;24.67;;;;;14.41;88.66;101529.34;5077430;28;45657;-82
2022/10/13 03:22:02;;;;;;;;;24.67;22.00;;;;;14.38;88.69;101514.50;5077475;28;45335;-82
2022/10/13 03:24:27;;;;;;;;;20.67;19.67;;;;;14.37;88.58;101496.81;5078412;27;45341;-83
2022/10/13 03:26:52;;;;;;;;;27.67;25.00;;;;;14.32;88.43;101492.00;5077209;28;47120;-82
2022/10/13 03:29:19;;;;;;;;;25.67;23.00;;;;;14.34;88.58;101491.81;5076864;28;45405;-82
2022/10/13 03:31:44;;;;;;;;;22.00;21.33;;;;;14.35;88.73;101496.16;5094231;27;45397;-82
2022/10/13 03:34:11;;;;;;;;;22.00;20.67;;;;;14.31;88.45;101490.31;5078445;27;45387;-82
2022/10/13 03:36:36;;;;;;;;;21.33;19.33;;;;;14.37;88.46;101502.97;5078322;27;45613;-82
2022/10/13 03:39:01;;;;;;;;;20.67;19.67;;;;;14.48;88.66;101517.75;5078732;28;45329;-83
2022/10/13 03:41:27;;;;;;;;;23.67;23.67;;;;;14.42;88.46;101509.63;5080609;28;45530;-82
2022/10/13 03:43:53;;;;;;;;;25.00;21.67;;;;;14.40;88.83;101504.47;5097345;27;47054;-82
2022/10/13 03:46:18;;;;;;;;;21.00;21.00;;;;;14.38;88.73;101503.81;5081611;27;46549;-82
2022/10/13 03:48:44;;;;;;;;;26.00;24.67;;;;;14.23;88.98;101474.34;5081637;27;45279;-82
2022/10/13 03:51:16;;;;;;;;;22.67;21.67;;;;;14.38;88.82;101514.50;5081712;27;45543;-83
2022/10/13 03:53:42;;;;;;;;;21.67;20.33;;;;;14.32;88.96;101492.00;5114448;27;46247;-82
2022/10/13 03:56:10;;;;;;;;;22.33;21.33;;;;;14.31;88.81;101482.28;5081316;28;45403;-82
2022/10/13 03:58:35;;;;;;;;;25.00;24.33;;;;;14.35;88.73;101483.63;5081645;27;45534;-82
2022/10/13 04:01:04;;;;;;;;;20.00;19.00;;;;;14.37;88.62;101481.56;5081612;27;45278;-82
2022/10/13 04:03:29;;;;;;;;;20.00;19.00;;;;;14.37;88.83;101480.75;5081285;27;45744;-82
2022/10/13 04:05:59;;;;;;;;;21.00;20.00;;;;;14.28;88.91;101466.63;5081242;28;45715;-82
2022/10/13 04:08:24;;;;;;;;;21.33;21.33;;;;;14.31;88.97;101466.25;5081400;27;45259;-83
2022/10/13 04:11:06;;;;;;;;;22.67;21.33;;;;;14.26;88.85;101464.16;5079662;28;45325;-82
2022/10/13 04:13:33;;;;;;;;;21.67;20.00;;;;;14.36;88.96;101461.19;5080849;27;46596;-82
2022/10/13 04:16:07;;;;;;;;;22.00;22.00;;;;;14.37;89.28;101454.84;5096903;27;46751;-82
2022/10/13 04:18:33;;;;;;;;;23.00;21.00;;;;;14.25;89.10;101443.75;5096718;27;45208;-83
2022/10/13 04:20:59;;;;;;;;;18.33;18.33;;;;;14.32;89.34;101449.22;5081018;27;45377;-83
2022/10/13 04:23:24;;;;;;;;;21.00;21.00;;;;;14.38;89.24;101464.53;5079793;28;45609;-82
2022/10/13 04:25:50;;;;;;;;;23.67;21.67;;;;;14.27;89.27;101447.09;5079605;28;48366;-82
2022/10/13 04:28:15;;;;;;;;;21.00;21.00;;;;;14.41;89.09;101466.00;5080977;27;45310;-82
2022/10/13 04:30:41;;;;;;;;;24.33;21.67;;;;;14.44;89.32;101464.81;5097028;27;46011;-82
2022/10/13 04:33:06;;;;;;;;;20.33;19.33;;;;;14.41;89.15;101466.00;5080977;27;45331;-82
2022/10/13 04:35:32;;;;;;;;;24.33;23.33;;;;;14.33;89.28;101456.22;5080962;27;45767;-82
2022/10/13 04:37:57;;;;;;;;;25.00;21.00;;;;;14.34;88.91;101473.91;5080851;28;45423;-82
2022/10/13 04:40:23;;;;;;;;;20.33;20.33;;;;;14.40;89.31;101491.09;5081139;27;45326;-82
2022/10/13 04:42:49;;;;;;;;;19.00;19.00;;;;;14.42;89.18;101483.72;5080675;27;45386;-82
2022/10/13 04:45:15;;;;;;;;;19.67;19.67;;;;;14.36;89.31;101479.91;5080680;28;45308;-82
2022/10/13 04:47:40;;;;;;;;;20.67;19.67;;;;;14.41;89.34;101484.72;5080612;28;45350;-82
2022/10/13 04:50:06;;;;;;;;;20.33;20.00;;;;;14.34;89.32;101465.06;5080469;27;45403;-82
2022/10/13 04:52:33;;;;;;;;;23.00;21.33;;;;;14.30;89.57;101463.78;5080534;27;45493;-82
2022/10/13 04:54:58;;;;;;;;;18.00;17.67;;;;;14.37;89.55;101486.91;5080494;27;46415;-83
2022/10/13 04:57:23;;;;;;;;;23.00;20.33;;;;;14.23;89.56;101461.00;5096247;27;45325;-82
2022/10/13 04:59:49;;;;;;;;;21.00;20.00;;;;;14.37;89.59;101480.75;5080527;28;45306;-82
2022/10/13 05:02:14;;;;;;;;;21.33;19.00;;;;;14.33;89.99;101476.75;5080422;27;45457;-82
2022/10/13 05:04:39;;;;;;;;;17.67;17.67;;;;;14.34;89.83;101481.13;5080358;27;45398;-83
2022/10/13 05:07:05;;;;;;;;;18.67;18.00;;;;;14.32;89.94;101475.94;5080315;28;45256;-83
2022/10/13 05:09:30;;;;;;;;;19.00;19.00;;;;;14.26;89.97;101466.81;5080841;27;45235;-82
2022/10/13 05:11:56;;;;;;;;;19.67;19.67;;;;;14.42;89.86;101488.25;5092978;27;46139;-82
2022/10/13 05:14:22;;;;;;;;;18.33;16.33;;;;;14.14;89.51;101442.38;5080305;27;46377;-82
2022/10/13 05:16:47;;;;;;;;;20.67;20.00;;;;;14.39;89.80;101474.22;5080297;27;45433;-82
2022/10/13 05:19:13;;;;;;;;;18.33;18.33;;;;;14.42;89.79;101488.25;5080302;27;45377;-82
2022/10/13 05:21:38;;;;;;;;;20.67;20.67;;;;;14.38;90.15;101463.69;5095992;27;47508;-82
2022/10/13 05:24:05;;;;;;;;;19.00;18.67;;;;;14.32;89.78;101456.41;5095827;27;46916;-82
2022/10/13 05:26:34;;;;;;;;;18.00;17.33;;;;;14.36;90.01;101465.72;5080190;27;45391;-82
2022/10/13 05:29:00;;;;;;;;;19.00;19.00;;;;;14.32;89.76;101446.53;5079859;27;45322;-83
2022/10/13 05:31:27;;;;;;;;;23.33;23.33;;;;;14.38;89.55;101467.22;5078653;28;46282;-82
2022/10/13 05:33:53;;;;;;;;;19.00;18.33;;;;;14.36;89.78;101463.03;5095631;27;47021;-82
2022/10/13 05:36:25;;;;;;;;;18.00;18.00;;;;;14.22;89.74;101443.31;5079717;27;45369;-82
2022/10/13 05:38:52;;;;;;;;;14.00;14.00;;;;;14.39;89.98;101465.34;5080238;27;45264;-82
2022/10/13 05:41:18;;;;;;;;;19.33;19.33;;;;;14.39;89.92;101465.34;5095409;27;46508;-82
2022/10/13 05:43:43;;;;;;;;;21.67;20.00;;;;;14.40;89.43;101450.97;5079700;27;45456;-82
2022/10/13 05:46:09;;;;;;;;;24.00;22.00;;;;;14.41;89.72;101447.28;5077815;27;45323;-83
2022/10/13 05:48:34;;;;;;;;;16.67;16.00;;;;;14.33;89.72;101436.66;5075750;27;45314;-82
2022/10/13 05:51:04;;;;;;;;;15.00;15.00;;;;;14.37;89.59;101437.97;5073326;27;45339;-82
2022/10/13 05:53:35;;;;;;;;;18.00;18.00;;;;;14.44;89.76;101454.94;5084537;27;49070;-82
2022/10/13 05:56:10;;;;;;;;;19.33;18.00;;;;;14.43;89.93;101457.81;5083695;27;45316;-80
2022/10/13 05:58:42;;;;;;;;;17.00;16.67;;;;;14.39;89.99;101442.13;5086322;27;45320;-80
2022/10/13 06:01:12;;;;;;;;;21.00;19.00;;;;;14.37;90.09;101440.66;5078830;28;46236;-79
2022/10/13 06:03:39;;;;;;;;;19.00;19.00;;;;;14.40;90.02;101437.63;5089946;27;47686;-79
2022/10/13 06:06:04;;;;;;;;;16.33;16.33;;;;;14.39;90.02;101435.94;5081981;27;45545;-80
2022/10/13 06:08:30;;;;;;;;;17.00;15.33;;;;;14.30;89.75;101413.78;5092311;27;45295;-82
2022/10/13 06:10:55;;;;;;;;;18.67;16.67;;;;;14.25;89.74;101400.97;5079365;27;45338;-80
2022/10/13 06:13:21;;;;;;;;;21.00;20.33;;;;;14.31;89.88;101407.44;5077734;28;47972;-79
2022/10/13 06:15:46;;;;;;;;;22.00;21.00;;;;;14.27;89.94;101400.78;5086602;27;47132;-78
2022/10/13 06:18:11;;;;;;;;;24.00;23.33;;;;;14.33;90.25;101416.09;5121848;27;45484;-79
2022/10/13 06:20:37;;;;;;;;;20.00;19.67;;;;;14.23;90.00;101403.00;5089709;27;45282;-80
2022/10/13 06:23:02;;;;;;;;;26.67;24.67;;;;;14.36;90.22;101428.28;5099988;27;48348;-80
2022/10/13 06:25:28;;;;;;;;;21.00;19.33;;;;;14.30;90.37;101415.66;5111968;27;45392;-80
2022/10/13 06:27:56;;;;;;;;;23.00;20.33;;;;;14.33;90.30;101426.81;5107418;27;45627;-81
2022/10/13 06:30:21;;;;;;;;;23.33;21.33;;;;;14.29;90.24;101419.31;5079218;27;45370;-80
2022/10/13 06:32:46;;;;;;;;;19.33;18.67;;;;;14.38;90.18;101437.78;5077874;28;47011;-81
2022/10/13 06:35:12;;;;;;;;;22.00;19.33;;;;;14.38;90.44;101431.59;5081601;27;45358;-81
2022/10/13 06:37:37;;;;;;;;;22.00;20.33;;;;;14.57;90.39;101448.97;5079469;27;45392;-79
2022/10/13 06:40:03;;;;;;;;;24.00;23.00;;;;;14.57;90.20;101437.41;5078731;28;45520;-81
2022/10/13 06:42:30;;;;;;;;;22.67;21.67;;;;;14.61;90.07;101430.72;5081876;27;46187;-81
2022/10/13 06:44:56;;;;;;;;;19.67;19.33;;;;;14.61;89.98;101436.06;5077552;27;45301;-81
2022/10/13 06:47:21;;;;;;;;;22.67;21.67;;;;;14.60;90.06;101429.88;5079211;27;45576;-81
2022/10/13 06:49:47;;;;;;;;;21.67;21.67;;;;;14.55;89.55;101421.59;5078781;27;45318;-81
2022/10/13 06:52:12;;;;;;;;;21.67;21.67;;;;;14.58;89.88;101428.41;5077763;28;47117;-81
2022/10/13 06:54:37;;;;;;;;;25.33;21.33;;;;;14.60;90.07;101421.00;5079128;27;45362;-79
2022/10/13 06:57:05;;;;;;;;;24.00;23.33;;;;;14.68;89.95;101439.66;5078644;27;46050;-79
2022/10/13 06:59:30;;;;;;;;;20.33;20.33;;;;;14.70;89.96;101429.56;5078848;27;45312;-78
2022/10/13 07:01:56;;;;;;;;;18.67;18.67;;;;;14.68;89.91;101420.94;5094496;27;47055;-76
2022/10/13 07:04:21;;;;;;;;;22.33;20.67;;;;;14.76;89.83;101430.72;5095657;27;45826;-80
2022/10/13 07:06:47;;;;;;;;;24.67;21.00;;;;;14.75;89.83;101411.13;5078176;28;45281;-77
2022/10/13 07:09:13;;;;;;;;;21.00;21.00;;;;;14.69;89.77;101406.53;5079399;27;45334;-78
2022/10/13 07:11:38;;;;;;;;;21.00;20.00;;;;;14.81;90.01;101422.97;5067870;27;45450;-76
2022/10/13 07:14:03;;;;;;;;;17.33;17.33;;;;;14.85;89.70;101428.78;5067474;27;45467;-79
2022/10/13 07:16:29;;;;;;;;;23.00;23.00;;;;;14.86;89.87;101425.94;5090926;27;45217;-78
2022/10/13 07:18:55;;;;;;;;;21.67;20.67;;;;;14.86;89.82;101423.25;5095789;27;45164;-80
2022/10/13 07:21:20;;;;;;;;;18.67;18.67;;;;;14.82;89.69;101407.75;5083416;28;47066;-79
2022/10/13 07:23:45;;;;;;;;;18.00;18.00;;;;;14.82;89.80;101413.09;5086307;27;45234;-79
2022/10/13 07:26:15;;;;;;;;;22.67;22.00;;;;;14.94;90.05;101427.69;5081669;28;45471;-80
2022/10/13 07:28:41;;;;;;;;;20.00;20.00;;;;;14.97;89.91;101440.66;5081925;27;45310;-81
2022/10/13 07:31:16;;;;;;;;;20.67;20.33;;;;;15.01;89.77;101438.47;5082307;28;46312;-82
2022/10/13 07:33:44;;;;;;;;;18.67;16.67;;;;;14.98;89.82;101434.31;5080283;27;45416;-79
2022/10/13 07:36:10;;;;;;;;;24.33;20.33;;;;;15.04;89.87;101434.56;5077444;27;45387;-79
2022/10/13 07:38:36;;;;;;;;;17.67;17.67;;;;;15.10;89.81;101431.16;5083295;28;45316;-79
2022/10/13 07:41:03;;;;;;;;;14.67;14.67;;;;;15.17;90.29;101437.41;5084148;27;46195;-78
2022/10/13 07:43:29;;;;;;;;;13.00;13.00;;;;;15.21;90.13;101437.88;5081602;28;45847;-77
2022/10/13 07:45:57;;;;;;;;;15.33;13.67;;;;;15.26;89.49;101441.63;5082985;28;45335;-79
2022/10/13 07:48:23;;;;;;;;;16.67;14.67;;;;;15.19;89.48;101442.56;5083485;27;45430;-79
2022/10/13 07:50:48;;;;;;;;;17.33;14.33;;;;;15.19;89.42;101430.03;5082559;28;45309;-78
2022/10/13 07:53:13;;;;;;;;;14.33;14.33;;;;;15.27;89.17;101437.94;5094148;27;45302;-79
2022/10/13 07:55:38;;;;;;;;;18.00;17.00;;;;;15.15;89.02;101416.16;5091091;28;45295;-78
2022/10/13 07:58:04;;;;;;;;;16.67;16.00;;;;;15.26;88.84;101433.59;5092786;27;45203;-80
2022/10/13 08:00:29;;;;;;;;;15.33;14.67;;;;;15.30;89.08;101444.78;5082579;27;45644;-79
2022/10/13 08:02:55;;;;;;;;;14.33;14.33;;;;;15.22;88.70;101424.28;5082990;27;45278;-79
2022/10/13 08:05:20;;;;;;;;;17.33;15.33;;;;;15.40;88.68;101453.34;5082255;27;45350;-79
2022/10/13 08:07:46;;;;;;;;;17.00;16.00;;;;;15.43;88.93;101462.84;5084454;27;45298;-79
2022/10/13 08:10:11;;;;;;;;;17.00;16.00;;;;;15.45;88.52;101466.16;5083380;27;45459;-79
2022/10/13 08:12:37;;;;;;;;;19.33;17.67;;;;;15.50;88.74;101468.25;5081522;27;45353;-79
2022/10/13 08:15:04;;;;;;;;;23.67;19.67;;;;;15.59;88.25;101474.34;5082755;27;45385;-79
2022/10/13 08:17:29;;;;;;;;;20.33;18.67;;;;;15.61;87.75;101477.66;5085997;27;47638;-79
2022/10/13 08:19:55;;;;;;;;;18.67;18.00;;;;;15.62;87.83;101484.66;5085446;27;45542;-79
2022/10/13 08:22:20;;;;;;;;;17.33;16.67;;;;;15.59;87.58;101466.31;5084303;28;45321;-76
2022/10/13 08:24:46;;;;;;;;;16.33;16.33;;;;;15.69;87.30;101466.84;5104630;27;45381;-76
2022/10/13 08:27:18;;;;;;;;;16.33;15.00;;;;;15.69;87.32;101466.84;5085266;28;45541;-79
2022/10/13 08:29:43;;;;;;;;;17.67;17.67;;;;;15.72;86.97;101461.09;5079541;27;45534;-77
2022/10/13 08:32:08;;;;;;;;;15.67;15.33;;;;;15.81;86.60;101475.19;5075839;28;45404;-78
2022/10/13 08:34:35;;;;;;;;;20.67;18.33;;;;;15.77;86.83;101464.00;5079678;28;45312;-78
2022/10/13 08:37:01;;;;;;;;;19.33;15.00;;;;;15.92;86.43;101486.41;5079246;28;47447;-76
2022/10/13 08:39:26;;;;;;;;;15.33;15.33;;;;;15.88;86.16;101462.69;5080633;27;46111;-78
2022/10/13 08:41:54;;;;;;;;;21.33;21.00;;;;;15.83;85.98;101442.84;5095347;27;45341;-78
2022/10/13 08:44:35;;;;;;;;;17.00;15.00;;;;;15.87;85.47;101449.47;5090546;28;45565;-79
2022/10/13 08:47:14;;;;;;;;;14.00;14.00;;;;;15.93;85.43;101447.88;5090386;28;45228;-78
2022/10/13 08:49:42;;;;;;;;;19.67;18.33;;;;;16.07;85.29;101462.25;5087641;27;46541;-79
2022/10/13 08:52:20;;;;;;;;;23.00;21.33;;;;;15.97;84.81;101444.63;5088223;27;45493;-77
2022/10/13 08:54:46;;;;;;;;;21.67;20.67;;;;;16.07;84.68;101456.88;5087771;28;45331;-78
2022/10/13 08:57:11;;;;;;;;;16.00;14.00;;;;;16.20;85.12;101467.72;5086849;27;45321;-78
2022/10/13 08:59:37;;;;;;;;;17.33;16.33;;;;;16.19;85.04;101459.88;5117246;27;47191;-78
2022/10/13 09:02:11;;;;;;;;;19.67;17.00;;;;;16.27;84.06;101465.91;5080973;28;46087;-79
2022/10/13 09:04:40;;;;;;;;;18.00;14.67;;;;;16.31;83.55;101462.84;5081871;27;45461;-78
2022/10/13 09:07:12;;;;;;;;;19.67;15.33;;;;;16.37;83.82;101478.16;5078681;28;47421;-78
2022/10/13 09:09:37;;;;;;;;;17.00;17.00;;;;;16.49;83.88;101479.28;5095766;27;47319;-76
2022/10/13 09:12:04;;;;;;;;;15.67;14.33;;;;;16.53;83.68;101464.44;5080222;27;45270;-77
2022/10/13 09:14:35;;;;;;;;;14.67;11.67;;;;;16.62;83.17;101459.75;5078940;27;45458;-78
2022/10/13 09:17:23;;;;;;;;;15.00;10.00;;;;;16.66;82.68;101444.91;5080173;27;45292;-78
2022/10/13 09:20:19;;;;;;;;;14.00;12.67;;;;;16.74;82.68;101454.66;5080090;27;45397;-79
2022/10/13 09:23:00;;;;;;;;;12.67;10.00;;;;;16.81;82.33;101456.53;5092274;27;45894;-78
2022/10/13 09:25:25;;;;;;;;;14.00;11.00;;;;;16.82;82.57;101447.47;5073897;28;45436;-79
2022/10/13 09:27:59;;;;;;;;;10.00;10.00;;;;;17.00;82.03;101460.38;5079827;27;45294;-79
2022/10/13 09:30:38;;;;;;;;;9.00;8.00;;;;;17.08;81.95;101456.69;5080146;27;46238;-79
2022/10/13 09:33:03;;;;;;;;;10.67;10.67;;;;;17.15;82.34;101453.00;5066431;28;45225;-79
2022/10/13 09:35:33;;;;;;;;;9.00;8.00;;;;;17.21;81.47;101461.31;5100248;27;45360;-78
2022/10/13 09:38:17;;;;;;;;;11.00;10.00;;;;;17.24;81.55;101464.41;5082395;27;45467;-79
2022/10/13 09:40:55;;;;;;;;;11.00;8.00;;;;;17.29;81.18;101467.31;5079797;27;45341;-79
2022/10/13 09:43:33;;;;;;;;;11.67;8.00;;;;;17.29;80.68;101456.56;5079485;27;45280;-77
2022/10/13 09:46:15;;;;;;;;;11.67;10.00;;;;;17.35;80.15;101456.78;5080493;27;45366;-83
2022/10/13 09:48:44;;;;;;;;;9.33;7.00;;;;;17.32;80.69;101435.69;5112274;27;47117;-81
2022/10/13 09:51:31;;;;;;;;;8.33;8.33;;;;;17.37;80.37;101444.84;5079739;27;47195;-80
2022/10/13 09:53:56;;;;;;;;;9.33;8.33;;;;;17.46;79.87;101458.91;5065241;28;46206;-80
2022/10/13 09:56:29;;;;;;;;;9.00;8.00;;;;;17.42;80.01;101446.91;5079844;27;45620;-80
2022/10/13 09:59:13;;;;;;;;;7.00;7.00;;;;;17.51;79.36;101448.34;5094582;27;46171;-81
2022/10/13 10:01:43;;;;;;;;;8.00;8.00;;;;;17.55;79.29;101454.16;5077766;27;46320;-82
2022/10/13 10:04:13;;;;;;;;;6.00;5.00;;;;;17.55;79.34;101451.47;5079338;27;45396;-82
2022/10/13 10:06:39;;;;;;;;;5.67;5.67;;;;;17.50;78.46;101452.09;5094970;27;45438;-82
2022/10/13 10:09:43;;;;;;;;;7.33;7.33;;;;;17.49;78.46;101452.28;5079549;27;45239;-82
2022/10/13 10:12:17;;;;;;;;;5.67;5.67;;;;;17.48;78.63;101447.94;5078603;28;45294;-81
2022/10/13 10:14:44;;;;;;;;;10.33;7.00;;;;;17.56;78.94;101444.22;5080284;27;45252;-81
2022/10/13 10:17:16;;;;;;;;;7.33;6.00;;;;;17.62;79.40;101460.38;5080312;27;45164;-84
2022/10/13 10:20:00;;;;;;;;;6.00;6.00;;;;;17.66;78.88;101472.38;5095428;27;46224;-83
2022/10/13 10:22:34;;;;;;;;;7.00;6.00;;;;;17.69;79.01;101468.44;5097751;27;47370;-82
2022/10/13 10:25:15;;;;;;;;;5.67;5.67;;;;;17.65;79.12;101462.66;5080752;28;45479;-84
2022/10/13 10:27:46;;;;;;;;;5.33;5.00;;;;;17.61;78.83;101465.94;5081110;28;45262;-82
2022/10/13 10:30:18;;;;;;;;;5.67;5.33;;;;;17.58;79.37;101463.66;5096098;27;45455;-82
2022/10/13 10:33:22;;;;;;;;;4.33;4.33;;;;;17.58;79.58;101469.88;5081385;27;46048;-82
2022/10/13 10:35:59;;;;;;;;;5.00;4.00;;;;;17.51;79.01;101445.66;5037583;28;45605;-83
2022/10/13 10:38:44;;;;;;;;;7.00;5.33;;;;;17.68;79.95;101461.41;5067523;28;45322;-84
2022/10/13 10:41:31;;;;;;;;;8.67;7.33;;;;;17.79;79.77;101451.94;5079554;28;45414;-83
2022/10/13 10:44:14;;;;;;;;;7.00;5.00;;;;;17.82;79.99;101435.38;5090439;27;47342;-77
2022/10/13 10:46:47;;;;;;;;;9.33;8.00;;;;;17.88;79.34;101428.34;5079214;27;45467;-78
2022/10/13 10:49:27;;;;;;;;;8.00;8.00;;;;;17.94;79.05;101430.22;5081536;27;45505;-78
2022/10/13 10:52:09;;;;;;;;;6.00;6.00;;;;;18.07;78.25;101424.00;5082628;27;45219;-78
2022/10/13 10:54:40;;;;;;;;;5.00;5.00;;;;;18.18;78.62;101425.28;5082409;28;46221;-78
2022/10/13 10:57:24;;;;;;;;;4.00;4.00;;;;;18.22;78.60;101426.50;5098363;27;45300;-77
2022/10/13 11:00:10;;;;;;;;;7.00;7.00;;;;;18.31;78.59;101426.28;5081986;28;45532;-78
2022/10/13 11:03:09;;;;;;;;;6.00;5.00;;;;;18.40;78.75;101419.63;5082129;27;45141;-79
2022/10/13 11:05:56;;;;;;;;;5.67;4.33;;;;;18.53;78.69;101410.72;5080747;28;48251;-78
2022/10/13 11:08:36;;;;;;;;;6.33;6.00;;;;;18.59;77.93;101425.19;5097903;27;45779;-79
2022/10/13 11:11:27;;;;;;;;;5.00;5.00;;;;;18.61;77.75;101431.16;5082256;28;45518;-77
2022/10/13 11:14:23;;;;;;;;;6.67;3.33;;;;;18.61;77.76;101415.03;5081988;27;45255;-78
2022/10/13 11:17:13;;;;;;;;;4.67;4.33;;;;;18.68;77.17;101410.47;5077584;27;45410;-78
2022/10/13 11:19:39;;;;;;;;;5.00;4.67;;;;;18.67;76.94;101401.56;5070485;28;45465;-78
2022/10/13 11:22:04;;;;;;;;;6.33;5.00;;;;;18.71;76.46;101406.53;5079926;27;45562;-78
2022/10/13 11:24:33;;;;;;;;;8.00;6.67;;;;;18.67;76.05;101411.50;5083631;27;45499;-78